sensor_id;sensor_type;location;lat;lon;timestamp;temperature;humidity
10437;DHT22;5265;50.006;9.202;2022-12-18T01:06:52;-9.50;99.90
10437;DHT22;5265;50.006;9.202;2022-12-18T01:36:23;-9.20;99.90
10437;DHT22;5265;50.006;9.202;2022-12-18T01:38:50;-8.70;99.90
10437;DHT22;5265;50.006;9.202;2022-12-18T01:41:18;-9.00;99.90
10437;DHT22;5265;50.006;9.202;2022-12-18T01:43:46;-8.70;99.90
10437;DHT22;5265;50.006;9.202;2022-12-18T01:46:15;-8.60;99.90
10437;DHT22;5265;50.006;9.202;2022-12-18T01:48:42;-8.70;99.90
10437;DHT22;5265;50.006;9.202;2022-12-18T01:51:10;-8.70;99.90
10437;DHT22;5265;50.006;9.202;2022-12-18T01:53:40;-8.60;99.90
10437;DHT22;5265;50.006;9.202;2022-12-18T01:56:08;-8.60;99.90
10437;DHT22;5265;50.006;9.202;2022-12-18T02:01:03;-8.40;99.90
10437;DHT22;5265;50.006;9.202;2022-12-18T02:03:31;-8.40;99.90
10437;DHT22;5265;50.006;9.202;2022-12-18T02:06:00;-8.30;99.90
10437;DHT22;5265;50.006;9.202;2022-12-18T02:08:32;-8.40;99.90
10437;DHT22;5265;50.006;9.202;2022-12-18T02:11:04;-8.20;99.90
10437;DHT22;5265;50.006;9.202;2022-12-18T02:13:36;-8.20;99.90
10437;DHT22;5265;50.006;9.202;2022-12-18T02:18:32;-8.00;99.90
10437;DHT22;5265;50.006;9.202;2022-12-18T02:23:34;-7.80;99.90
10437;DHT22;5265;50.006;9.202;2022-12-18T02:28:31;-7.80;99.90
10437;DHT22;5265;50.006;9.202;2022-12-18T02:31:04;-7.80;99.90
10437;DHT22;5265;50.006;9.202;2022-12-18T02:36:01;-7.70;99.90
10437;DHT22;5265;50.006;9.202;2022-12-18T02:38:30;-7.50;99.90
10437;DHT22;5265;50.006;9.202;2022-12-18T02:41:07;-7.70;99.90
10437;DHT22;5265;50.006;9.202;2022-12-18T02:43:36;-7.70;99.90
10437;DHT22;5265;50.006;9.202;2022-12-18T02:48:35;-7.50;99.90
10437;DHT22;5265;50.006;9.202;2022-12-18T02:51:03;-7.60;99.90
10437;DHT22;5265;50.006;9.202;2022-12-18T02:53:34;-7.50;99.90
10437;DHT22;5265;50.006;9.202;2022-12-18T02:56:05;-7.70;99.90
10437;DHT22;5265;50.006;9.202;2022-12-18T02:58:35;-7.70;99.90
10437;DHT22;5265;50.006;9.202;2022-12-18T03:03:43;-7.50;99.90
10437;DHT22;5265;50.006;9.202;2022-12-18T03:06:12;-7.50;99.90
10437;DHT22;5265;50.006;9.202;2022-12-18T03:08:43;-7.60;99.90
10437;DHT22;5265;50.006;9.202;2022-12-18T03:11:11;-7.50;99.90
10437;DHT22;5265;50.006;9.202;2022-12-18T03:13:40;-7.30;99.90
10437;DHT22;5265;50.006;9.202;2022-12-18T03:16:14;-7.30;99.90
10437;DHT22;5265;50.006;9.202;2022-12-18T03:18:45;-7.20;99.90
10437;DHT22;5265;50.006;9.202;2022-12-18T03:23:40;-7.30;99.90
10437;DHT22;5265;50.006;9.202;2022-12-18T03:26:12;-7.20;99.90
10437;DHT22;5265;50.006;9.202;2022-12-18T03:28:42;-7.20;99.90
10437;DHT22;5265;50.006;9.202;2022-12-18T03:31:11;-7.10;99.90
10437;DHT22;5265;50.006;9.202;2022-12-18T03:33:40;-7.10;99.90
10437;DHT22;5265;50.006;9.202;2022-12-18T03:36:10;-7.10;99.90
10437;DHT22;5265;50.006;9.202;2022-12-18T03:38:37;-7.00;99.90
10437;DHT22;5265;50.006;9.202;2022-12-18T03:43:43;-7.00;99.90
10437;DHT22;5265;50.006;9.202;2022-12-18T03:46:15;-7.10;99.90
10437;DHT22;5265;50.006;9.202;2022-12-18T03:48:44;-7.20;99.90
10437;DHT22;5265;50.006;9.202;2022-12-18T03:51:21;-7.00;99.90
10437;DHT22;5265;50.006;9.202;2022-12-18T03:56:20;-7.00;99.90
10437;DHT22;5265;50.006;9.202;2022-12-18T03:58:49;-7.20;99.90
10437;DHT22;5265;50.006;9.202;2022-12-18T04:01:22;-6.90;99.90
10437;DHT22;5265;50.006;9.202;2022-12-18T04:06:20;-6.90;99.90
10437;DHT22;5265;50.006;9.202;2022-12-18T04:11:19;-6.90;99.90
10437;DHT22;5265;50.006;9.202;2022-12-18T04:13:47;-6.90;99.90
10437;DHT22;5265;50.006;9.202;2022-12-18T04:16:20;-7.10;99.90
10437;DHT22;5265;50.006;9.202;2022-12-18T04:18:51;-6.90;99.90
10437;DHT22;5265;50.006;9.202;2022-12-18T04:21:20;-7.00;99.90
10437;DHT22;5265;50.006;9.202;2022-12-18T04:23:49;-7.20;99.90
10437;DHT22;5265;50.006;9.202;2022-12-18T04:26:19;-7.10;99.90
10437;DHT22;5265;50.006;9.202;2022-12-18T04:29:19;-7.00;99.90
10437;DHT22;5265;50.006;9.202;2022-12-18T04:31:46;-7.10;99.90
10437;DHT22;5265;50.006;9.202;2022-12-18T04:34:15;-7.10;99.90
10437;DHT22;5265;50.006;9.202;2022-12-18T04:36:49;-7.30;99.90
10437;DHT22;5265;50.006;9.202;2022-12-18T04:39:17;-7.30;52.70
10437;DHT22;5265;50.006;9.202;2022-12-18T04:41:45;-7.00;58.80
10437;DHT22;5265;50.006;9.202;2022-12-18T04:44:13;-6.90;90.70
10437;DHT22;5265;50.006;9.202;2022-12-18T04:46:40;-7.10;21.40
10437;DHT22;5265;50.006;9.202;2022-12-18T04:49:07;-7.00;1.00
10437;DHT22;5265;50.006;9.202;2022-12-18T04:51:36;-7.00;99.90
10437;DHT22;5265;50.006;9.202;2022-12-18T04:54:04;-6.80;8.30
10437;DHT22;5265;50.006;9.202;2022-12-18T04:56:32;-6.90;1.00
10437;DHT22;5265;50.006;9.202;2022-12-18T04:58:59;-6.80;12.60
10437;DHT22;5265;50.006;9.202;2022-12-18T05:01:26;-6.80;1.00
10437;DHT22;5265;50.006;9.202;2022-12-18T05:03:53;-6.90;1.00
10437;DHT22;5265;50.006;9.202;2022-12-18T05:06:21;-7.00;1.00
10437;DHT22;5265;50.006;9.202;2022-12-18T05:08:48;-7.10;1.00
10437;DHT22;5265;50.006;9.202;2022-12-18T05:13:44;-6.80;95.50
10437;DHT22;5265;50.006;9.202;2022-12-18T05:16:11;-7.00;99.90
10437;DHT22;5265;50.006;9.202;2022-12-18T05:21:07;-6.60;74.20
10437;DHT22;5265;50.006;9.202;2022-12-18T05:23:34;-6.70;54.20
10437;DHT22;5265;50.006;9.202;2022-12-18T05:26:02;-6.70;99.90
10437;DHT22;5265;50.006;9.202;2022-12-18T05:33:26;-6.50;31.80
10437;DHT22;5265;50.006;9.202;2022-12-18T05:38:21;-6.40;1.00
10437;DHT22;5265;50.006;9.202;2022-12-18T05:40:48;-6.90;22.50
10437;DHT22;5265;50.006;9.202;2022-12-18T05:45:43;-6.60;99.90
10437;DHT22;5265;50.006;9.202;2022-12-18T05:50:44;-6.60;1.00
10437;DHT22;5265;50.006;9.202;2022-12-18T05:53:11;-6.70;24.50
10437;DHT22;5265;50.006;9.202;2022-12-18T05:55:39;-6.60;52.00
10437;DHT22;5265;50.006;9.202;2022-12-18T06:05:29;-6.80;1.00
10437;DHT22;5265;50.006;9.202;2022-12-18T06:08:02;-6.50;1.00
10437;DHT22;5265;50.006;9.202;2022-12-18T06:10:30;-6.40;1.00
10437;DHT22;5265;50.006;9.202;2022-12-18T06:15:24;-6.50;1.00
10437;DHT22;5265;50.006;9.202;2022-12-18T06:17:51;-6.20;1.00
10437;DHT22;5265;50.006;9.202;2022-12-18T06:20:19;-6.40;1.00
10437;DHT22;5265;50.006;9.202;2022-12-18T06:22:46;-6.40;1.00
10437;DHT22;5265;50.006;9.202;2022-12-18T06:25:14;-6.50;1.00
10437;DHT22;5265;50.006;9.202;2022-12-18T06:27:42;-6.20;1.00
10437;DHT22;5265;50.006;9.202;2022-12-18T06:30:09;-6.50;1.00
10437;DHT22;5265;50.006;9.202;2022-12-18T06:32:37;-6.40;1.00
10437;DHT22;5265;50.006;9.202;2022-12-18T06:35:04;-6.50;1.00
10437;DHT22;5265;50.006;9.202;2022-12-18T06:37:31;-6.40;1.00
10437;DHT22;5265;50.006;9.202;2022-12-18T06:39:59;-6.50;1.00
10437;DHT22;5265;50.006;9.202;2022-12-18T06:42:28;-6.30;1.00
10437;DHT22;5265;50.006;9.202;2022-12-18T06:44:55;-6.20;1.00
10437;DHT22;5265;50.006;9.202;2022-12-18T06:47:22;-6.30;1.00
10437;DHT22;5265;50.006;9.202;2022-12-18T06:49:49;-6.60;1.00
10437;DHT22;5265;50.006;9.202;2022-12-18T06:52:16;-6.50;1.00
10437;DHT22;5265;50.006;9.202;2022-12-18T06:54:43;-6.50;1.00
10437;DHT22;5265;50.006;9.202;2022-12-18T06:57:10;-6.40;1.00
10437;DHT22;5265;50.006;9.202;2022-12-18T07:02:09;-6.30;1.00
10437;DHT22;5265;50.006;9.202;2022-12-18T07:04:37;-6.30;1.00
10437;DHT22;5265;50.006;9.202;2022-12-18T07:07:04;-6.60;1.00
10437;DHT22;5265;50.006;9.202;2022-12-18T07:09:31;-6.60;1.00
10437;DHT22;5265;50.006;9.202;2022-12-18T07:11:58;-6.60;1.00
10437;DHT22;5265;50.006;9.202;2022-12-18T07:14:25;-6.50;1.00
10437;DHT22;5265;50.006;9.202;2022-12-18T07:19:24;-6.70;1.00
10437;DHT22;5265;50.006;9.202;2022-12-18T07:21:51;-6.60;1.00
10437;DHT22;5265;50.006;9.202;2022-12-18T07:24:19;-6.60;1.00
10437;DHT22;5265;50.006;9.202;2022-12-18T07:26:46;-6.60;1.00
10437;DHT22;5265;50.006;9.202;2022-12-18T07:29:13;-6.50;1.00
10437;DHT22;5265;50.006;9.202;2022-12-18T07:31:40;-6.60;1.00
10437;DHT22;5265;50.006;9.202;2022-12-18T07:34:09;-6.40;1.00
10437;DHT22;5265;50.006;9.202;2022-12-18T07:36:38;-6.90;1.00
10437;DHT22;5265;50.006;9.202;2022-12-18T07:39:05;-6.60;1.00
10437;DHT22;5265;50.006;9.202;2022-12-18T07:44:08;-6.50;1.00
10437;DHT22;5265;50.006;9.202;2022-12-18T07:46:36;-6.50;1.00
10437;DHT22;5265;50.006;9.202;2022-12-18T07:49:03;-6.60;1.00
10437;DHT22;5265;50.006;9.202;2022-12-18T07:51:30;-6.40;1.00
10437;DHT22;5265;50.006;9.202;2022-12-18T07:53:58;-6.40;1.00
10437;DHT22;5265;50.006;9.202;2022-12-18T07:58:53;-6.70;1.00
10437;DHT22;5265;50.006;9.202;2022-12-18T08:01:20;-6.50;1.00
10437;DHT22;5265;50.006;9.202;2022-12-18T08:03:47;-6.60;1.00
10437;DHT22;5265;50.006;9.202;2022-12-18T08:08:42;-6.60;1.00
10437;DHT22;5265;50.006;9.202;2022-12-18T08:13:38;-6.60;1.00
10437;DHT22;5265;50.006;9.202;2022-12-18T08:16:06;-6.60;1.00
10437;DHT22;5265;50.006;9.202;2022-12-18T08:18:34;-6.50;1.00
10437;DHT22;5265;50.006;9.202;2022-12-18T08:21:08;-6.40;1.00
10437;DHT22;5265;50.006;9.202;2022-12-18T08:23:36;-6.20;1.00
10437;DHT22;5265;50.006;9.202;2022-12-18T08:33:27;-6.40;4.70
10437;DHT22;5265;50.006;9.202;2022-12-18T08:38:21;-6.50;1.00
10437;DHT22;5265;50.006;9.202;2022-12-18T08:40:48;-6.40;1.00
10437;DHT22;5265;50.006;9.202;2022-12-18T08:43:15;-6.50;1.00
10437;DHT22;5265;50.006;9.202;2022-12-18T08:45:59;-6.50;1.00
10437;DHT22;5265;50.006;9.202;2022-12-18T08:48:28;-6.30;63.00
10437;DHT22;5265;50.006;9.202;2022-12-18T08:50:55;-6.50;1.00
10437;DHT22;5265;50.006;9.202;2022-12-18T08:53:25;-6.00;57.80
10437;DHT22;5265;50.006;9.202;2022-12-18T08:55:52;-6.10;99.90
10437;DHT22;5265;50.006;9.202;2022-12-18T08:58:19;-6.20;44.70
10437;DHT22;5265;50.006;9.202;2022-12-18T09:00:46;-6.20;1.00
10437;DHT22;5265;50.006;9.202;2022-12-18T09:03:13;-6.40;1.00
10437;DHT22;5265;50.006;9.202;2022-12-18T09:05:42;-6.30;99.90
10437;DHT22;5265;50.006;9.202;2022-12-18T09:08:09;-6.10;1.00
10437;DHT22;5265;50.006;9.202;2022-12-18T09:10:41;-6.30;1.00
10437;DHT22;5265;50.006;9.202;2022-12-18T09:13:07;-6.10;1.00
10437;DHT22;5265;50.006;9.202;2022-12-18T09:15:39;-6.20;1.00
10437;DHT22;5265;50.006;9.202;2022-12-18T09:18:06;-6.40;1.00
10437;DHT22;5265;50.006;9.202;2022-12-18T09:23:02;-6.00;21.60
10437;DHT22;5265;50.006;9.202;2022-12-18T09:25:29;-6.00;99.90
10437;DHT22;5265;50.006;9.202;2022-12-18T09:27:58;-5.90;99.90
10437;DHT22;5265;50.006;9.202;2022-12-18T09:32:56;-5.80;99.90
10437;DHT22;5265;50.006;9.202;2022-12-18T09:35:23;-5.90;99.90
10437;DHT22;5265;50.006;9.202;2022-12-18T09:40:19;-5.90;99.90
10437;DHT22;5265;50.006;9.202;2022-12-18T09:42:47;-5.90;99.90
10437;DHT22;5265;50.006;9.202;2022-12-18T09:50:16;-6.10;99.90
10437;DHT22;5265;50.006;9.202;2022-12-18T09:52:45;-5.70;99.90
10437;DHT22;5265;50.006;9.202;2022-12-18T09:55:15;-5.60;99.90
10437;DHT22;5265;50.006;9.202;2022-12-18T09:57:47;-5.90;99.90
10437;DHT22;5265;50.006;9.202;2022-12-18T10:07:49;-5.70;99.90
10437;DHT22;5265;50.006;9.202;2022-12-18T10:10:28;-5.60;99.90
10437;DHT22;5265;50.006;9.202;2022-12-18T10:13:02;-5.40;99.90
10437;DHT22;5265;50.006;9.202;2022-12-18T10:15:32;-5.50;99.90
10437;DHT22;5265;50.006;9.202;2022-12-18T10:18:03;-5.40;99.90
10437;DHT22;5265;50.006;9.202;2022-12-18T10:20:37;-5.50;99.90
10437;DHT22;5265;50.006;9.202;2022-12-18T10:23:08;-5.50;99.90
10437;DHT22;5265;50.006;9.202;2022-12-18T10:25:50;-5.30;99.90
10437;DHT22;5265;50.006;9.202;2022-12-18T10:28:20;-5.30;99.90
10437;DHT22;5265;50.006;9.202;2022-12-18T10:30:47;-5.30;99.90
10437;DHT22;5265;50.006;9.202;2022-12-18T10:35:42;-5.40;99.90
10437;DHT22;5265;50.006;9.202;2022-12-18T10:38:21;-5.10;99.90
10437;DHT22;5265;50.006;9.202;2022-12-18T10:40:50;-5.20;99.90
10437;DHT22;5265;50.006;9.202;2022-12-18T10:43:21;-4.90;99.90
10437;DHT22;5265;50.006;9.202;2022-12-18T10:45:58;-5.00;99.90
10437;DHT22;5265;50.006;9.202;2022-12-18T10:48:25;-4.70;99.90
10437;DHT22;5265;50.006;9.202;2022-12-18T10:58:18;-4.70;99.90
10437;DHT22;5265;50.006;9.202;2022-12-18T11:01:00;-4.50;99.90
10437;DHT22;5265;50.006;9.202;2022-12-18T11:06:01;-4.30;99.90
10437;DHT22;5265;50.006;9.202;2022-12-18T11:08:28;-4.70;99.90
10437;DHT22;5265;50.006;9.202;2022-12-18T11:10:55;-4.40;99.90
10437;DHT22;5265;50.006;9.202;2022-12-18T11:15:50;-4.00;99.90
10437;DHT22;5265;50.006;9.202;2022-12-18T11:18:20;-4.10;99.90
10437;DHT22;5265;50.006;9.202;2022-12-18T11:20:52;-4.20;99.90
10437;DHT22;5265;50.006;9.202;2022-12-18T11:23:20;-4.00;99.90
10437;DHT22;5265;50.006;9.202;2022-12-18T11:25:55;-4.20;99.90
10437;DHT22;5265;50.006;9.202;2022-12-18T11:33:56;-4.10;99.90
10437;DHT22;5265;50.006;9.202;2022-12-18T11:36:24;-3.70;99.90
10437;DHT22;5265;50.006;9.202;2022-12-18T11:38:52;-4.00;99.90
10437;DHT22;5265;50.006;9.202;2022-12-18T11:43:50;-3.80;99.90
10437;DHT22;5265;50.006;9.202;2022-12-18T11:46:19;-3.70;99.90
10437;DHT22;5265;50.006;9.202;2022-12-18T11:48:52;-3.70;99.90
10437;DHT22;5265;50.006;9.202;2022-12-18T11:53:52;-3.80;99.90
10437;DHT22;5265;50.006;9.202;2022-12-18T11:56:26;-3.70;99.90
10437;DHT22;5265;50.006;9.202;2022-12-18T11:58:57;-3.70;99.90
10437;DHT22;5265;50.006;9.202;2022-12-18T12:04:03;-3.60;99.90
10437;DHT22;5265;50.006;9.202;2022-12-18T12:06:33;-3.60;99.90
10437;DHT22;5265;50.006;9.202;2022-12-18T12:14:12;-3.20;99.90
10437;DHT22;5265;50.006;9.202;2022-12-18T12:16:43;-3.20;99.90
10437;DHT22;5265;50.006;9.202;2022-12-18T12:19:17;-3.50;99.90
10437;DHT22;5265;50.006;9.202;2022-12-18T12:21:46;-3.50;99.90
10437;DHT22;5265;50.006;9.202;2022-12-18T12:24:21;-3.30;99.90
10437;DHT22;5265;50.006;9.202;2022-12-18T12:26:52;-3.30;99.90
10437;DHT22;5265;50.006;9.202;2022-12-18T12:29:28;-3.40;99.90
10437;DHT22;5265;50.006;9.202;2022-12-18T12:32:03;-3.40;99.90
10437;DHT22;5265;50.006;9.202;2022-12-18T12:37:13;-3.30;99.90
10437;DHT22;5265;50.006;9.202;2022-12-18T12:39:43;-3.30;99.90
10437;DHT22;5265;50.006;9.202;2022-12-18T12:42:12;-3.20;99.90
10437;DHT22;5265;50.006;9.202;2022-12-18T12:47:30;-3.10;99.90
10437;DHT22;5265;50.006;9.202;2022-12-18T12:49:58;-3.00;99.90
10437;DHT22;5265;50.006;9.202;2022-12-18T12:52:28;-3.40;99.90
10437;DHT22;5265;50.006;9.202;2022-12-18T12:54:57;-3.20;99.90
10437;DHT22;5265;50.006;9.202;2022-12-18T12:57:26;-3.10;99.90
10437;DHT22;5265;50.006;9.202;2022-12-18T13:02:22;-3.40;99.90
10437;DHT22;5265;50.006;9.202;2022-12-18T13:07:23;-3.20;99.90
10437;DHT22;5265;50.006;9.202;2022-12-18T13:10:12;-3.20;99.90
10437;DHT22;5265;50.006;9.202;2022-12-18T13:12:50;-3.00;99.90
10437;DHT22;5265;50.006;9.202;2022-12-18T13:15:23;-3.00;99.90
10437;DHT22;5265;50.006;9.202;2022-12-18T13:18:02;-3.20;99.90
10437;DHT22;5265;50.006;9.202;2022-12-18T13:20:32;-3.10;99.90
10437;DHT22;5265;50.006;9.202;2022-12-18T13:23:01;-3.20;99.90
10437;DHT22;5265;50.006;9.202;2022-12-18T13:25:45;-3.10;99.90
10437;DHT22;5265;50.006;9.202;2022-12-18T13:28:15;-3.10;99.90
10437;DHT22;5265;50.006;9.202;2022-12-18T13:30:53;-3.00;99.90
10437;DHT22;5265;50.006;9.202;2022-12-18T13:33:30;-3.00;99.90
10437;DHT22;5265;50.006;9.202;2022-12-18T13:36:09;-2.80;99.90
10437;DHT22;5265;50.006;9.202;2022-12-18T13:38:38;-3.10;99.90
10437;DHT22;5265;50.006;9.202;2022-12-18T13:41:20;-3.10;99.90
10437;DHT22;5265;50.006;9.202;2022-12-18T13:43:48;-3.10;99.90
10437;DHT22;5265;50.006;9.202;2022-12-18T13:46:18;-3.10;99.90
10437;DHT22;5265;50.006;9.202;2022-12-18T13:48:49;-2.90;99.90
10437;DHT22;5265;50.006;9.202;2022-12-18T13:51:17;-2.90;99.90
10437;DHT22;5265;50.006;9.202;2022-12-18T13:53:48;-2.90;99.90
10437;DHT22;5265;50.006;9.202;2022-12-18T13:56:21;-3.00;99.90
10437;DHT22;5265;50.006;9.202;2022-12-18T13:59:03;-2.80;99.90
10437;DHT22;5265;50.006;9.202;2022-12-18T14:01:30;-3.20;99.90
10437;DHT22;5265;50.006;9.202;2022-12-18T14:04:08;-3.00;99.90
10437;DHT22;5265;50.006;9.202;2022-12-18T14:06:35;-3.10;99.90
10437;DHT22;5265;50.006;9.202;2022-12-18T14:09:04;-2.80;99.90
10437;DHT22;5265;50.006;9.202;2022-12-18T14:11:31;-2.80;99.90
10437;DHT22;5265;50.006;9.202;2022-12-18T14:13:59;-2.70;99.90
10437;DHT22;5265;50.006;9.202;2022-12-18T14:16:29;-2.90;99.90
10437;DHT22;5265;50.006;9.202;2022-12-18T14:18:56;-2.90;99.90
10437;DHT22;5265;50.006;9.202;2022-12-18T14:21:25;-2.70;99.90
10437;DHT22;5265;50.006;9.202;2022-12-18T14:24:04;-2.60;99.90
10437;DHT22;5265;50.006;9.202;2022-12-18T14:26:31;-2.80;99.90
10437;DHT22;5265;50.006;9.202;2022-12-18T14:28:59;-2.80;99.90
10437;DHT22;5265;50.006;9.202;2022-12-18T14:31:29;-2.80;99.90
10437;DHT22;5265;50.006;9.202;2022-12-18T14:33:56;-3.00;99.90
10437;DHT22;5265;50.006;9.202;2022-12-18T14:36:24;-2.90;99.90
10437;DHT22;5265;50.006;9.202;2022-12-18T14:38:51;-2.90;99.90
10437;DHT22;5265;50.006;9.202;2022-12-18T14:41:20;-2.90;99.90
10437;DHT22;5265;50.006;9.202;2022-12-18T14:43:48;-2.90;99.90
10437;DHT22;5265;50.006;9.202;2022-12-18T14:46:26;-2.80;99.90
10437;DHT22;5265;50.006;9.202;2022-12-18T14:51:22;-3.00;99.90
10437;DHT22;5265;50.006;9.202;2022-12-18T14:53:53;-2.60;99.90
10437;DHT22;5265;50.006;9.202;2022-12-18T14:56:23;-2.90;99.90
10437;DHT22;5265;50.006;9.202;2022-12-18T14:58:51;-2.80;99.90
10437;DHT22;5265;50.006;9.202;2022-12-18T15:01:20;-2.70;99.90
10437;DHT22;5265;50.006;9.202;2022-12-18T15:06:16;-2.60;99.90
10437;DHT22;5265;50.006;9.202;2022-12-18T15:08:44;-3.00;99.90
10437;DHT22;5265;50.006;9.202;2022-12-18T15:11:28;-2.90;99.90
10437;DHT22;5265;50.006;9.202;2022-12-18T15:13:57;-3.00;99.90
10437;DHT22;5265;50.006;9.202;2022-12-18T15:16:24;-2.90;99.90
10437;DHT22;5265;50.006;9.202;2022-12-18T15:18:51;-2.90;99.90
10437;DHT22;5265;50.006;9.202;2022-12-18T15:21:20;-3.10;99.90
10437;DHT22;5265;50.006;9.202;2022-12-18T15:23:47;-3.00;99.90
10437;DHT22;5265;50.006;9.202;2022-12-18T15:26:16;-2.90;99.90
10437;DHT22;5265;50.006;9.202;2022-12-18T15:28:45;-3.10;99.90
10437;DHT22;5265;50.006;9.202;2022-12-18T15:31:21;-3.20;99.90
10437;DHT22;5265;50.006;9.202;2022-12-18T15:36:43;-2.90;99.90
10437;DHT22;5265;50.006;9.202;2022-12-18T15:39:10;-2.90;99.90
10437;DHT22;5265;50.006;9.202;2022-12-18T15:41:37;-3.00;99.90
10437;DHT22;5265;50.006;9.202;2022-12-18T15:46:32;-2.90;99.90
10437;DHT22;5265;50.006;9.202;2022-12-18T15:48:59;-3.20;99.90
10437;DHT22;5265;50.006;9.202;2022-12-18T15:51:28;-3.00;99.90
10437;DHT22;5265;50.006;9.202;2022-12-18T15:53:56;-3.20;99.90
10437;DHT22;5265;50.006;9.202;2022-12-18T15:56:25;-3.30;99.90
10437;DHT22;5265;50.006;9.202;2022-12-18T16:01:38;-3.20;99.90
10437;DHT22;5265;50.006;9.202;2022-12-18T16:04:05;-3.20;99.90
10437;DHT22;5265;50.006;9.202;2022-12-18T16:06:33;-3.30;99.90
10437;DHT22;5265;50.006;9.202;2022-12-18T16:09:00;-3.20;99.90
10437;DHT22;5265;50.006;9.202;2022-12-18T16:14:12;-3.40;99.90
10437;DHT22;5265;50.006;9.202;2022-12-18T16:16:41;-3.40;99.90
10437;DHT22;5265;50.006;9.202;2022-12-18T16:19:08;-3.20;99.90
10437;DHT22;5265;50.006;9.202;2022-12-18T16:21:35;-3.30;99.90
10437;DHT22;5265;50.006;9.202;2022-12-18T16:24:03;-3.20;99.90
10437;DHT22;5265;50.006;9.202;2022-12-18T16:26:30;-3.20;99.90
10437;DHT22;5265;50.006;9.202;2022-12-18T16:31:28;-3.20;99.90
10437;DHT22;5265;50.006;9.202;2022-12-18T16:36:24;-3.40;99.90
10437;DHT22;5265;50.006;9.202;2022-12-18T16:38:51;-3.30;99.90
10437;DHT22;5265;50.006;9.202;2022-12-18T16:41:18;-3.10;99.90
10437;DHT22;5265;50.006;9.202;2022-12-18T16:43:57;-3.20;99.90
10437;DHT22;5265;50.006;9.202;2022-12-18T16:48:52;-3.20;99.90
10437;DHT22;5265;50.006;9.202;2022-12-18T16:51:19;-3.10;99.90
10437;DHT22;5265;50.006;9.202;2022-12-18T16:53:48;-2.90;99.90
10437;DHT22;5265;50.006;9.202;2022-12-18T16:56:15;-3.10;99.90
10437;DHT22;5265;50.006;9.202;2022-12-18T16:58:42;-3.30;99.90
10437;DHT22;5265;50.006;9.202;2022-12-18T17:01:10;-3.20;99.90
10437;DHT22;5265;50.006;9.202;2022-12-18T17:03:38;-3.00;99.90
10437;DHT22;5265;50.006;9.202;2022-12-18T17:06:05;-3.20;99.90
10437;DHT22;5265;50.006;9.202;2022-12-18T17:08:33;-3.20;99.90
10437;DHT22;5265;50.006;9.202;2022-12-18T17:11:04;-3.30;99.90
10437;DHT22;5265;50.006;9.202;2022-12-18T17:13:32;-3.00;99.90
10437;DHT22;5265;50.006;9.202;2022-12-18T17:16:02;-3.50;99.90
10437;DHT22;5265;50.006;9.202;2022-12-18T17:18:31;-3.20;99.90
10437;DHT22;5265;50.006;9.202;2022-12-18T17:20:58;-3.10;99.90
10437;DHT22;5265;50.006;9.202;2022-12-18T17:23:26;-2.00;99.90
10437;DHT22;5265;50.006;9.202;2022-12-18T17:25:53;-3.10;99.90
10437;DHT22;5265;50.006;9.202;2022-12-18T17:28:23;-3.20;99.90
10437;DHT22;5265;50.006;9.202;2022-12-18T17:30:50;-3.10;99.90
10437;DHT22;5265;50.006;9.202;2022-12-18T17:33:17;-3.10;99.90
10437;DHT22;5265;50.006;9.202;2022-12-18T17:35:45;-3.20;99.90
10437;DHT22;5265;50.006;9.202;2022-12-18T17:40:40;-3.00;99.90
10437;DHT22;5265;50.006;9.202;2022-12-18T17:43:07;-2.90;99.90
10437;DHT22;5265;50.006;9.202;2022-12-18T17:45:36;-2.90;99.90
10437;DHT22;5265;50.006;9.202;2022-12-18T17:48:03;-2.80;99.90
10437;DHT22;5265;50.006;9.202;2022-12-18T17:50:31;-2.80;99.90
10437;DHT22;5265;50.006;9.202;2022-12-18T17:52:58;-2.90;99.90
10437;DHT22;5265;50.006;9.202;2022-12-18T17:57:53;-2.80;99.90
10437;DHT22;5265;50.006;9.202;2022-12-18T18:00:20;-2.90;99.90
10437;DHT22;5265;50.006;9.202;2022-12-18T18:02:49;-2.80;99.90
10437;DHT22;5265;50.006;9.202;2022-12-18T18:05:16;-2.60;99.90
10437;DHT22;5265;50.006;9.202;2022-12-18T18:07:43;-2.90;99.90
10437;DHT22;5265;50.006;9.202;2022-12-18T18:10:10;-2.70;99.90
10437;DHT22;5265;50.006;9.202;2022-12-18T18:12:38;-2.80;99.90
10437;DHT22;5265;50.006;9.202;2022-12-18T18:15:22;-2.70;99.90
10437;DHT22;5265;50.006;9.202;2022-12-18T18:17:51;-2.50;99.90
10437;DHT22;5265;50.006;9.202;2022-12-18T18:20:18;-2.50;99.90
10437;DHT22;5265;50.006;9.202;2022-12-18T18:22:46;-2.80;99.90
10437;DHT22;5265;50.006;9.202;2022-12-18T18:25:12;-2.60;99.90
10437;DHT22;5265;50.006;9.202;2022-12-18T18:27:39;-2.70;99.90
10437;DHT22;5265;50.006;9.202;2022-12-18T18:30:07;-2.80;99.90
10437;DHT22;5265;50.006;9.202;2022-12-18T18:37:33;-2.80;99.90
10437;DHT22;5265;50.006;9.202;2022-12-18T18:40:00;-2.50;99.90
10437;DHT22;5265;50.006;9.202;2022-12-18T18:42:28;-2.80;99.90
10437;DHT22;5265;50.006;9.202;2022-12-18T18:47:22;-2.80;99.90
10437;DHT22;5265;50.006;9.202;2022-12-18T18:49:50;-2.80;99.90
10437;DHT22;5265;50.006;9.202;2022-12-18T18:52:17;-2.80;99.90
10437;DHT22;5265;50.006;9.202;2022-12-18T18:57:13;-2.50;99.90
10437;DHT22;5265;50.006;9.202;2022-12-18T19:02:08;-3.00;99.90
10437;DHT22;5265;50.006;9.202;2022-12-18T19:04:37;-2.60;99.90
10437;DHT22;5265;50.006;9.202;2022-12-18T19:07:03;-2.70;99.90
10437;DHT22;5265;50.006;9.202;2022-12-18T19:09:31;-2.50;99.90
10437;DHT22;5265;50.006;9.202;2022-12-18T19:11:57;-2.80;99.90
10437;DHT22;5265;50.006;9.202;2022-12-18T19:14:43;-2.80;99.90
10437;DHT22;5265;50.006;9.202;2022-12-18T19:17:11;-2.70;99.90
10437;DHT22;5265;50.006;9.202;2022-12-18T19:19:38;-2.70;99.90
10437;DHT22;5265;50.006;9.202;2022-12-18T19:22:05;-2.70;99.90
10437;DHT22;5265;50.006;9.202;2022-12-18T19:24:32;-2.60;99.90
10437;DHT22;5265;50.006;9.202;2022-12-18T19:26:59;-2.50;99.90
10437;DHT22;5265;50.006;9.202;2022-12-18T19:29:26;-2.80;99.90
10437;DHT22;5265;50.006;9.202;2022-12-18T19:31:54;-2.90;99.90
10437;DHT22;5265;50.006;9.202;2022-12-18T19:36:49;-2.80;99.90
10437;DHT22;5265;50.006;9.202;2022-12-18T19:39:17;-2.70;99.90
10437;DHT22;5265;50.006;9.202;2022-12-18T19:41:44;-2.60;99.90
10437;DHT22;5265;50.006;9.202;2022-12-18T19:44:12;-2.70;99.90
10437;DHT22;5265;50.006;9.202;2022-12-18T19:46:40;-2.80;99.90
10437;DHT22;5265;50.006;9.202;2022-12-18T19:49:09;-2.80;99.90
10437;DHT22;5265;50.006;9.202;2022-12-18T19:51:36;-2.70;99.90
10437;DHT22;5265;50.006;9.202;2022-12-18T19:54:11;-2.70;99.90
10437;DHT22;5265;50.006;9.202;2022-12-18T19:56:38;-2.50;99.90
10437;DHT22;5265;50.006;9.202;2022-12-18T19:59:05;-3.10;99.90
10437;DHT22;5265;50.006;9.202;2022-12-18T20:01:32;-2.90;99.90
10437;DHT22;5265;50.006;9.202;2022-12-18T20:03:59;-2.60;99.90
10437;DHT22;5265;50.006;9.202;2022-12-18T20:06:28;-2.70;99.90
10437;DHT22;5265;50.006;9.202;2022-12-18T20:08:57;-2.80;99.90
10437;DHT22;5265;50.006;9.202;2022-12-18T20:11:24;-3.00;99.90
10437;DHT22;5265;50.006;9.202;2022-12-18T20:13:51;-3.10;99.90
10437;DHT22;5265;50.006;9.202;2022-12-18T20:16:18;-3.00;99.90
10437;DHT22;5265;50.006;9.202;2022-12-18T20:18:45;-2.70;99.90
10437;DHT22;5265;50.006;9.202;2022-12-18T20:21:12;-3.10;99.90
10437;DHT22;5265;50.006;9.202;2022-12-18T20:23:41;-2.90;99.90
10437;DHT22;5265;50.006;9.202;2022-12-18T20:26:08;-2.90;99.90
10437;DHT22;5265;50.006;9.202;2022-12-18T20:28:35;-2.70;99.90
10437;DHT22;5265;50.006;9.202;2022-12-18T20:31:04;-2.90;99.90
10437;DHT22;5265;50.006;9.202;2022-12-18T20:33:33;-2.90;99.90
10437;DHT22;5265;50.006;9.202;2022-12-18T20:38:28;-3.00;99.90
10437;DHT22;5265;50.006;9.202;2022-12-18T20:40:57;-2.80;99.90
10437;DHT22;5265;50.006;9.202;2022-12-18T20:43:27;-2.80;99.90
10437;DHT22;5265;50.006;9.202;2022-12-18T20:45:58;-2.80;99.90